createdAt,value
2023-04-02T00:01:39.289Z,93.60
2023-04-02T00:05:56.847Z,93.47
2023-04-02T00:10:03.107Z,94.43
2023-04-02T00:14:07.979Z,94.86
2023-04-02T00:18:16.857Z,94.80
2023-04-02T00:22:21.487Z,95.59
2023-04-02T00:26:31.876Z,96.44
2023-04-02T00:30:36.620Z,96.10
2023-04-02T00:34:41.359Z,96.56
2023-04-02T00:38:47.510Z,96.87
2023-04-02T00:42:55.067Z,97.47
2023-04-02T00:47:04.499Z,98.22
2023-04-02T00:51:16.052Z,98.50
2023-04-02T00:55:23.660Z,99.40
2023-04-02T00:59:30.917Z,99.95
2023-04-02T01:03:37.501Z,100.00
2023-04-02T01:08:03.475Z,100.00
2023-04-02T01:12:29.876Z,100.00
2023-04-02T01:16:46.859Z,100.00
2023-04-02T01:21:26.258Z,100.00
2023-04-02T01:25:36.556Z,100.00
2023-04-02T01:29:47.432Z,100.00
2023-04-02T01:33:52.519Z,100.00
2023-04-02T01:38:07.680Z,100.00
2023-04-02T01:42:22.133Z,100.00
2023-04-02T01:46:33.210Z,100.00
2023-04-02T01:50:38.312Z,100.00
2023-04-02T01:54:41.555Z,100.00
2023-04-02T01:58:44.945Z,100.00
2023-04-02T02:02:52.154Z,100.00
2023-04-02T02:06:58.838Z,100.00
2023-04-02T02:11:03.174Z,100.00
2023-04-02T02:15:15.031Z,100.00
2023-04-02T02:19:27.340Z,100.00
2023-04-02T02:23:31.305Z,100.00
2023-04-02T02:27:51.034Z,100.00
2023-04-02T02:31:57.606Z,100.00
2023-04-02T02:36:07.035Z,100.00
2023-04-02T02:40:17.668Z,100.00
2023-04-02T02:44:25.324Z,100.00
2023-04-02T02:48:37.932Z,100.00
2023-04-02T02:52:48.618Z,100.00
2023-04-02T02:57:01.721Z,100.00
2023-04-02T03:01:05.766Z,100.00
2023-04-02T03:05:09.858Z,100.00
2023-04-02T03:09:23.463Z,100.00
2023-04-02T03:13:32.974Z,100.00
2023-04-02T03:17:41.081Z,100.00
2023-04-02T03:21:49.607Z,100.00
2023-04-02T03:26:02.573Z,100.00
2023-04-02T03:30:19.792Z,100.00
2023-04-02T03:34:29.906Z,100.00
2023-04-02T03:38:35.885Z,100.00
2023-04-02T03:42:47.097Z,100.00
2023-04-02T03:46:57.774Z,100.00
2023-04-02T03:51:06.782Z,100.00
2023-04-02T03:55:16.669Z,100.00
2023-04-02T03:59:33.114Z,100.00
2023-04-02T04:03:43.926Z,100.00
2023-04-02T04:07:47.552Z,100.00
2023-04-02T04:11:53.823Z,100.00
2023-04-02T04:16:06.157Z,100.00
2023-04-02T04:20:22.256Z,100.00
2023-04-02T04:24:27.139Z,100.00
2023-04-02T04:28:38.619Z,100.00
2023-04-02T04:32:51.314Z,100.00
2023-04-02T04:37:01.926Z,100.00
2023-04-02T04:41:08.558Z,100.00
2023-04-02T04:45:36.210Z,100.00
2023-04-02T04:49:46.302Z,100.00
2023-04-02T04:53:51.466Z,100.00
2023-04-02T04:57:58.140Z,100.00
2023-04-02T05:02:06.301Z,100.00
2023-04-02T05:06:18.652Z,100.00
2023-04-02T05:10:30.557Z,100.00
2023-04-02T05:14:38.184Z,100.00
2023-04-02T05:18:47.769Z,100.00
2023-04-02T05:22:54.527Z,100.00
2023-04-02T05:27:03.850Z,100.00
2023-04-02T05:31:11.436Z,100.00
2023-04-02T05:35:22.881Z,100.00
2023-04-02T05:39:29.265Z,100.00
2023-04-02T05:43:35.687Z,100.00
2023-04-02T05:47:43.522Z,100.00
2023-04-02T05:51:50.636Z,100.00
2023-04-02T05:56:00.743Z,100.00
2023-04-02T06:00:11.161Z,100.00
2023-04-02T06:04:24.208Z,100.00
2023-04-02T06:08:36.670Z,100.00
2023-04-02T06:12:46.885Z,100.00
2023-04-02T06:16:50.210Z,100.00
2023-04-02T06:20:53.466Z,100.00
2023-04-02T06:25:02.235Z,100.00
2023-04-02T06:29:14.698Z,100.00
2023-04-02T06:33:19.690Z,100.00
2023-04-02T06:37:28.917Z,100.00
2023-04-02T18:03:54.097Z,100.00
2023-04-02T18:08:06.824Z,100.00
2023-04-02T18:12:27.194Z,100.00
2023-04-02T18:16:51.525Z,100.00
2023-04-02T18:21:08.347Z,100.00
2023-04-02T18:25:27.330Z,100.00
2023-04-02T18:29:38.266Z,100.00
2023-04-02T18:34:05.274Z,100.00
2023-04-02T18:38:30.893Z,100.00
2023-04-02T18:42:51.237Z,100.00
2023-04-02T18:46:57.902Z,100.00
2023-04-02T18:51:02.018Z,100.00
2023-04-02T18:55:09.588Z,100.00
2023-04-02T18:59:33.932Z,100.00
2023-04-02T19:03:43.150Z,100.00
2023-04-02T19:07:50.999Z,100.00
2023-04-02T19:11:55.765Z,100.00
2023-04-02T19:16:25.628Z,100.00
2023-04-02T19:20:35.355Z,100.00
2023-04-02T19:24:51.907Z,100.00
2023-04-02T19:29:05.730Z,100.00
2023-04-02T19:33:29.412Z,100.00
2023-04-02T19:37:42.321Z,100.00
2023-04-02T19:41:51.543Z,100.00
2023-04-02T19:45:58.751Z,100.00
2023-04-02T19:50:01.900Z,100.00
2023-04-02T19:54:05.535Z,100.00
2023-04-02T19:58:25.031Z,100.00
2023-04-02T20:02:29.796Z,100.00
2023-04-02T20:06:33.630Z,100.00
2023-04-02T20:10:36.743Z,100.00
2023-04-02T20:14:39.782Z,100.00
2023-04-02T20:18:47.171Z,100.00
2023-04-02T20:22:50.867Z,100.00
2023-04-02T20:26:53.912Z,100.00
2023-04-02T20:31:07.096Z,100.00
2023-04-02T20:35:13.918Z,100.00
2023-04-02T20:39:20.497Z,100.00
2023-04-02T20:43:25.612Z,100.00
2023-04-02T20:47:28.796Z,100.00
2023-04-02T20:51:34.507Z,100.00
2023-04-02T20:55:37.689Z,100.00
2023-04-02T20:59:40.719Z,100.00
2023-04-02T21:03:43.918Z,100.00
2023-04-02T21:07:49.481Z,100.00
2023-04-02T21:11:52.748Z,100.00
2023-04-02T21:15:55.923Z,100.00
2023-04-02T21:19:59.390Z,100.00
2023-04-02T21:24:05.964Z,100.00
2023-04-02T21:28:08.842Z,100.00
2023-04-02T21:32:20.899Z,100.00
2023-04-02T21:36:26.748Z,100.00
2023-04-02T21:40:33.603Z,100.00
2023-04-02T21:44:37.302Z,100.00
2023-04-02T21:48:40.776Z,100.00
2023-04-02T21:52:43.456Z,100.00
2023-04-02T21:56:47.822Z,100.00
2023-04-02T22:00:51.194Z,100.00
2023-04-02T22:04:54.089Z,100.00
2023-04-02T22:08:59.255Z,100.00
2023-04-02T22:13:03.919Z,100.00
2023-04-02T22:17:07.590Z,99.25
2023-04-02T22:21:12.101Z,95.10
2023-04-02T22:25:15.063Z,92.57
2023-04-02T22:29:19.873Z,91.41
2023-04-02T22:33:23.193Z,89.70
2023-04-02T22:37:26.357Z,90.78
2023-04-02T22:41:32.201Z,92.77
2023-04-02T22:45:36.695Z,91.30
2023-04-02T22:49:41.760Z,90.04
2023-04-02T22:53:46.235Z,89.56
2023-04-02T22:57:57.237Z,90.28
2023-04-02T23:02:13.351Z,85.33
2023-04-02T23:06:19.228Z,85.11
2023-04-02T23:10:22.199Z,86.13
2023-04-02T23:14:24.716Z,87.14
2023-04-02T23:18:29.196Z,87.86
2023-04-02T23:22:32.534Z,86.46
2023-04-02T23:26:35.565Z,84.40
2023-04-02T23:30:38.835Z,86.23
2023-04-02T23:34:43.506Z,88.20
2023-04-02T23:38:46.656Z,84.37
2023-04-02T23:42:49.516Z,87.30
2023-04-02T23:46:52.842Z,87.49
2023-04-02T23:50:57.283Z,88.20
2023-04-02T23:55:00.738Z,87.02
2023-04-02T23:59:04.161Z,87.38
